Time;durP1;ratioP1;P1;durP2;ratioP2;P2;SDS_P1;SDS_P2;PMS_P1;PMS_P2;Temp;Humidity;BMP_temperature;BMP_pressure;BME280_temperature;BME280_humidity;BME280_pressure;Samples;Min_cycle;Max_cycle;Signal;HPM_P1;HPM_P2
2022/08/13 00:01:37;;;;;;;13.27;8.25;;;;;;;19.10;77.45;99582.59;8376529;28;20045;-81
2022/08/13 00:05:38;;;;;;;12.43;8.68;;;;;;;19.24;76.77;99588.44;8362307;28;20071;-81
2022/08/13 00:09:42;;;;;;;11.52;8.40;;;;;;;19.31;76.30;99594.06;8362236;28;20048;-81
2022/08/13 00:13:45;;;;;;;11.27;8.30;;;;;;;19.39;75.87;99595.84;8362138;28;20555;-81
2022/08/13 00:17:51;;;;;;;13.40;8.13;;;;;;;19.48;75.55;99599.22;8360619;28;20681;-81
2022/08/13 00:21:54;;;;;;;10.77;8.40;;;;;;;19.53;75.62;99601.69;8362310;28;20048;-81
2022/08/13 00:25:57;;;;;;;10.90;8.85;;;;;;;19.57;75.65;99599.81;8362627;28;20048;-81
2022/08/13 00:29:58;;;;;;;15.57;10.30;;;;;;;19.61;76.02;99597.97;8356434;28;20056;-81
2022/08/13 00:34:00;;;;;;;14.00;10.27;;;;;;;19.62;76.49;99605.03;8362187;28;20141;-81
2022/08/13 00:38:01;;;;;;;14.50;10.90;;;;;;;19.62;76.78;99599.53;8361859;28;20048;-81
2022/08/13 00:42:02;;;;;;;15.95;11.07;;;;;;;19.62;77.08;99610.50;8361791;28;20389;-82
2022/08/13 00:46:04;;;;;;;16.35;10.70;;;;;;;19.54;77.89;99597.81;8352245;28;20053;-82
2022/08/13 00:50:05;;;;;;;13.57;11.20;;;;;;;19.45;78.58;99608.16;8361404;28;20053;-82
2022/08/13 00:54:11;;;;;;;16.25;11.65;;;;;;;19.37;79.47;99598.13;8361793;28;20392;-82
2022/08/13 00:58:15;;;;;;;19.00;12.05;;;;;;;19.28;80.01;99589.31;8365689;28;20049;-81
2022/08/13 01:02:17;;;;;;;18.75;12.05;;;;;;;19.21;80.74;99583.66;8367775;28;20174;-81
2022/08/13 01:06:18;;;;;;;19.10;11.80;;;;;;;19.16;80.80;99581.19;8365929;28;20041;-81
2022/08/13 01:10:20;;;;;;;17.42;12.18;;;;;;;19.13;81.17;99581.91;8366901;28;20045;-81
2022/08/13 01:14:24;;;;;;;14.68;11.95;;;;;;;19.10;81.63;99574.38;8367194;28;20094;-81
2022/08/13 01:18:25;;;;;;;13.38;11.43;;;;;;;19.07;81.69;99569.63;8366467;28;20045;-82
2022/08/13 01:22:26;;;;;;;18.00;12.32;;;;;;;19.09;81.91;99559.13;8366201;28;20041;-82
2022/08/13 01:26:32;;;;;;;15.73;11.93;;;;;;;19.03;82.29;99566.81;8366780;28;20045;-81
2022/08/13 01:30:34;;;;;;;17.40;11.93;;;;;;;18.99;82.40;99558.50;8365921;28;20049;-82
2022/08/13 01:34:35;;;;;;;17.30;12.30;;;;;;;18.99;82.65;99561.25;8367155;28;20049;-82
2022/08/13 01:38:37;;;;;;;15.73;12.30;;;;;;;18.90;83.61;99557.09;8366324;28;20072;-82
2022/08/13 01:42:41;;;;;;;18.77;13.05;;;;;;;18.79;84.79;99543.16;8364924;28;20481;-81
2022/08/13 01:51:03;;;;;;;21.30;14.23;;;;;;;18.72;85.55;99544.91;8365428;28;20072;-82
2022/08/13 01:55:04;;;;;;;15.75;13.73;;;;;;;18.63;86.21;99536.88;8365435;28;20041;-81
2022/08/13 01:59:05;;;;;;;20.52;14.27;;;;;;;18.63;86.57;99539.59;8366310;28;20048;-81
2022/08/13 02:03:09;;;;;;;18.05;14.88;;;;;;;18.63;86.57;99534.13;8365684;28;20469;-80
2022/08/13 02:07:13;;;;;;;18.98;14.43;;;;;;;18.59;86.85;99535.97;8364853;28;20419;-81
2022/08/13 02:11:14;;;;;;;22.60;15.38;;;;;;;18.58;87.34;99534.38;8365360;28;20400;-80
2022/08/13 02:15:16;;;;;;;20.70;14.57;;;;;;;18.52;88.06;99524.81;8365469;28;20063;-81
2022/08/13 02:19:16;;;;;;;20.10;15.15;;;;;;;18.50;88.63;99521.66;8365199;28;20542;-81
2022/08/13 02:23:21;;;;;;;18.35;14.95;;;;;;;18.51;88.68;99523.22;8365282;28;20061;-80
2022/08/13 02:27:24;;;;;;;19.15;15.10;;;;;;;18.46;89.76;99520.75;8363943;28;20407;-80
2022/08/13 02:31:26;;;;;;;18.58;13.60;;;;;;;18.42;90.17;99514.41;8364830;28;20450;-80
2022/08/13 02:35:27;;;;;;;21.83;14.18;;;;;;;18.41;90.39;99521.81;8364329;28;20076;-80
2022/08/13 02:39:28;;;;;;;17.05;13.95;;;;;;;18.38;91.31;99518.97;8363165;28;20522;-79
2022/08/13 02:43:31;;;;;;;17.38;14.38;;;;;;;18.38;91.48;99524.44;8364612;28;20135;-80
2022/08/13 02:47:32;;;;;;;15.57;13.05;;;;;;;18.34;92.16;99512.63;8364274;28;20489;-79
2022/08/13 02:51:33;;;;;;;18.58;13.43;;;;;;;18.33;92.38;99511.03;8378350;28;20532;-79
2022/08/13 02:55:34;;;;;;;16.23;13.82;;;;;;;18.33;92.50;99511.03;8364439;28;20103;-79
2022/08/13 02:59:35;;;;;;;20.10;13.25;;;;;;;18.34;92.37;99496.22;8363856;28;20128;-80
2022/08/13 03:03:36;;;;;;;24.48;14.07;;;;;;;18.31;92.88;99496.91;8363865;28;20056;-79
2022/08/13 03:07:40;;;;;;;16.40;12.45;;;;;;;18.31;92.70;99502.38;8363973;28;20095;-79
2022/08/13 03:11:41;;;;;;;16.88;13.48;;;;;;;18.34;92.83;99496.22;8363610;28;20068;-79
2022/08/13 03:15:44;;;;;;;21.23;13.30;;;;;;;18.35;92.40;99481.38;8363722;28;20128;-79
2022/08/13 03:19:45;;;;;;;18.13;12.35;;;;;;;18.33;92.82;99494.63;8361529;28;20037;-79
2022/08/13 03:23:46;;;;;;;15.73;12.60;;;;;;;18.30;92.77;99484.38;8345815;28;20041;-79
2022/08/13 03:27:48;;;;;;;17.13;13.63;;;;;;;18.34;92.95;99490.75;8363427;28;20053;-79
2022/08/13 03:31:50;;;;;;;15.43;13.13;;;;;;;18.35;92.86;99481.38;8363022;28;20055;-79
2022/08/13 03:35:51;;;;;;;17.33;13.00;;;;;;;18.36;92.77;99488.44;8363217;28;20052;-79
2022/08/13 03:39:52;;;;;;;15.98;13.75;;;;;;;18.35;92.94;99486.84;8362620;28;20132;-79
2022/08/13 03:43:53;;;;;;;17.25;14.57;;;;;;;18.30;93.55;99484.38;8362645;28;20055;-79
2022/08/13 03:47:55;;;;;;;20.20;14.57;;;;;;;18.28;94.00;99492.16;8362286;28;20128;-80
2022/08/13 03:51:56;;;;;;;20.83;15.50;;;;;;;18.30;94.09;99495.31;8363022;28;20068;-79
2022/08/13 03:55:58;;;;;;;20.58;16.52;;;;;;;18.29;94.61;99496.47;8362638;28;20048;-78
2022/08/13 03:59:59;;;;;;;21.90;15.68;;;;;;;18.30;94.92;99500.78;8326717;28;20063;-79
2022/08/13 04:04:02;;;;;;;23.63;17.15;;;;;;;18.30;95.02;99484.38;8362920;28;20626;-79
2022/08/13 04:08:04;;;;;;;22.42;16.13;;;;;;;18.35;94.73;99487.66;8350005;28;20542;-80
2022/08/13 04:12:09;;;;;;;23.33;17.40;;;;;;;18.37;94.75;99490.03;8363021;28;20171;-79
2022/08/13 04:16:15;;;;;;;21.23;17.52;;;;;;;18.38;94.96;99477.97;8361761;28;20121;-80
2022/08/13 04:20:16;;;;;;;23.52;17.90;;;;;;;18.40;94.75;99472.94;8361884;28;20151;-79
2022/08/13 04:24:18;;;;;;;24.63;16.95;;;;;;;18.44;94.88;99476.56;8343446;28;20055;-80
2022/08/13 04:28:21;;;;;;;25.10;17.83;;;;;;;18.49;95.20;99473.56;8355926;28;20389;-79
2022/08/13 04:32:23;;;;;;;24.90;18.65;;;;;;;18.48;95.49;99474.72;8354461;28;20514;-79
2022/08/13 04:36:24;;;;;;;24.23;18.63;;;;;;;18.46;95.96;99471.53;8374149;28;20057;-79
2022/08/13 04:40:25;;;;;;;22.98;18.40;;;;;;;18.46;95.87;99482.47;8380040;28;20049;-79
2022/08/13 04:44:26;;;;;;;24.00;18.73;;;;;;;18.49;96.17;99470.84;8358155;28;20059;-80
2022/08/13 04:48:28;;;;;;;25.15;18.73;;;;;;;18.50;96.55;99469.69;8387047;28;20067;-80
2022/08/13 04:52:29;;;;;;;25.35;17.75;;;;;;;18.49;96.77;99470.84;8366145;28;20049;-80
2022/08/13 04:56:30;;;;;;;24.65;18.90;;;;;;;18.45;97.49;99476.19;8337981;28;20041;-79
2022/08/13 05:00:34;;;;;;;24.13;20.15;;;;;;;18.52;97.12;99475.59;8334340;28;20049;-79
2022/08/13 05:04:35;;;;;;;26.85;19.30;;;;;;;18.53;97.42;99477.19;8332460;28;20099;-80
2022/08/13 05:08:38;;;;;;;24.30;19.02;;;;;;;18.53;97.31;99482.66;8349774;28;20045;-80
2022/08/13 05:12:40;;;;;;;25.58;19.88;;;;;;;18.54;97.04;99484.28;8340400;28;20045;-80
2022/08/13 05:16:40;;;;;;;25.30;19.33;;;;;;;18.55;96.92;99485.88;8338829;28;20073;-80
2022/08/13 05:20:42;;;;;;;28.02;20.50;;;;;;;18.53;96.95;99482.66;8338641;28;20045;-80
2022/08/13 05:24:42;;;;;;;23.90;19.52;;;;;;;18.51;97.59;99479.47;8340368;28;20412;-79
2022/08/13 05:28:44;;;;;;;27.17;20.20;;;;;;;18.54;97.53;99478.81;8362029;28;20045;-80
2022/08/13 05:32:45;;;;;;;26.10;20.63;;;;;;;18.55;97.63;99480.41;8364727;28;20053;-80
2022/08/13 05:36:46;;;;;;;25.88;20.20;;;;;;;18.55;97.48;99481.19;8359483;28;20640;-80
2022/08/13 05:40:47;;;;;;;26.67;20.77;;;;;;;18.53;98.31;99471.72;8356870;28;20131;-80
2022/08/13 05:44:48;;;;;;;22.38;18.58;;;;;;;18.56;98.71;99471.81;8347475;28;20044;-80
2022/08/13 05:48:58;;;;;;;27.27;19.92;;;;;;;18.59;99.21;99469.53;8368695;28;20044;-80
2022/08/13 05:53:10;;;;;;;26.17;20.38;;;;;;;18.66;99.17;99470.53;8328958;28;20053;-79
2022/08/13 05:57:11;;;;;;;23.70;19.90;;;;;;;18.81;98.85;99461.50;8375526;28;20095;-80
2022/08/13 06:05:31;;;;;;;25.73;18.45;;;;;;;18.95;98.54;99461.84;8344483;28;20060;-81
2022/08/13 06:09:32;;;;;;;27.40;21.00;;;;;;;18.98;98.67;99461.13;8365951;28;20071;-81
2022/08/13 06:13:36;;;;;;;24.30;20.60;;;;;;;19.01;98.80;99464.31;8373362;28;20439;-81
2022/08/13 06:17:37;;;;;;;24.65;20.15;;;;;;;19.01;98.74;99461.56;8367819;28;20041;-81
2022/08/13 06:21:39;;;;;;;32.22;21.60;;;;;;;19.01;98.83;99461.56;8383076;28;20041;-82
2022/08/13 06:25:41;;;;;;;29.38;22.30;;;;;;;18.97;99.13;99470.50;8288795;28;20050;-81
2022/08/13 06:29:45;;;;;;;32.70;23.20;;;;;;;18.95;99.44;99467.31;8277599;28;20043;-81
2022/08/13 06:33:46;;;;;;;29.75;22.33;;;;;;;18.97;99.24;99465.03;8267007;28;20058;-81
2022/08/13 06:37:47;;;;;;;31.27;22.83;;;;;;;18.98;99.38;99466.59;8248320;28;20128;-81
2022/08/13 06:41:48;;;;;;;32.70;24.33;;;;;;;18.96;99.55;99457.97;8288956;28;20057;-81
2022/08/13 06:45:49;;;;;;;31.70;24.30;;;;;;;18.98;99.31;99461.13;8285575;28;20132;-81
2022/08/13 06:49:50;;;;;;;36.60;25.83;;;;;;;18.98;99.19;99461.13;8306861;28;20073;-81
2022/08/13 06:53:50;;;;;;;32.42;25.80;;;;;;;19.01;99.26;99464.31;8308787;28;20181;-81
2022/08/13 06:57:52;;;;;;;35.65;25.77;;;;;;;19.08;99.15;99464.47;8365759;28;20080;-81
2022/08/13 07:01:59;;;;;;;29.90;25.05;;;;;;;19.17;98.92;99467.81;8374982;28;20061;-81
2022/08/13 07:06:00;;;;;;;33.97;25.40;;;;;;;19.21;98.61;99468.66;8364091;28;20106;-81
2022/08/13 07:10:02;;;;;;;34.17;25.65;;;;;;;19.24;98.52;99462.50;8372551;28;20075;-80
2022/08/13 07:14:03;;;;;;;33.90;25.25;;;;;;;19.25;98.48;99453.91;8372138;28;20041;-82
2022/08/13 07:18:05;;;;;;;32.90;24.88;;;;;;;19.35;98.43;99453.34;8362037;28;20063;-81
2022/08/13 07:22:06;;;;;;;38.72;26.00;;;;;;;19.53;97.82;99453.75;8355266;28;20090;-80
2022/08/13 07:26:09;;;;;;;33.30;25.15;;;;;;;19.77;96.94;99452.69;8375724;28;20401;-81
2022/08/13 07:30:14;;;;;;;33.30;22.75;;;;;;;19.93;96.15;99455.34;8388761;28;20048;-81
2022/08/13 07:34:15;;;;;;;31.00;23.23;;;;;;;20.00;95.62;99450.00;8390527;28;20052;-82
2022/08/13 07:38:16;;;;;;;28.30;21.88;;;;;;;19.98;95.78;99457.81;8381828;28;20056;-81
2022/08/13 07:42:19;;;;;;;27.33;21.98;;;;;;;19.99;95.67;99470.31;8386382;28;20447;-82
2022/08/13 07:46:20;;;;;;;25.98;21.50;;;;;;;19.91;95.70;99468.63;8389198;28;20044;-81
2022/08/13 07:50:22;;;;;;;30.55;21.23;;;;;;;19.86;95.97;99471.66;8389757;28;20531;-78
2022/08/13 07:54:23;;;;;;;29.60;21.52;;;;;;;19.84;95.97;99469.25;8382191;28;20123;-79
2022/08/13 07:58:27;;;;;;;31.15;21.05;;;;;;;19.92;95.90;99464.72;8388304;28;20128;-81
2022/08/13 08:02:32;;;;;;;30.65;21.17;;;;;;;20.04;95.80;99472.81;8391114;28;20143;-81
2022/08/13 08:06:33;;;;;;;25.52;20.60;;;;;;;19.99;95.81;99475.81;8377192;28;20056;-81
2022/08/13 08:10:37;;;;;;;25.25;20.95;;;;;;;19.88;96.34;99480.31;8361568;28;20561;-82
2022/08/13 08:32:53;;;;;;;26.02;21.63;;;;;;;19.94;100.00;99492.56;8440886;27;20845;-78
2022/08/13 08:36:55;;;;;;;27.70;21.52;;;;;;;19.91;100.00;99485.06;8400935;28;20135;-78
2022/08/13 08:45:18;;;;;;;28.10;21.85;;;;;;;20.06;100.00;99484.19;8399557;28;20045;-78
2022/08/13 08:49:21;;;;;;;29.33;21.45;;;;;;;20.18;99.66;99489.50;8400196;28;20190;-78
2022/08/13 08:53:24;;;;;;;31.02;22.23;;;;;;;20.29;98.96;99474.06;8431481;28;20055;-78
2022/08/13 08:57:25;;;;;;;30.52;22.95;;;;;;;20.38;98.73;99482.88;8412054;28;21778;-78
2022/08/13 09:01:27;;;;;;;24.98;21.35;;;;;;;20.48;98.01;99487.75;8425394;28;20071;-78
2022/08/13 09:05:27;;;;;;;25.33;20.60;;;;;;;20.54;97.82;99486.28;8417260;28;20048;-78
2022/08/13 09:09:29;;;;;;;25.33;21.35;;;;;;;20.63;97.65;99478.59;8373237;28;20048;-79
2022/08/13 09:13:30;;;;;;;27.80;20.98;;;;;;;20.65;97.80;99480.97;8420765;28;20135;-79
2022/08/13 09:17:32;;;;;;;28.08;21.38;;;;;;;20.79;97.57;99480.41;8405759;28;20547;-79
2022/08/13 09:21:42;;;;;;;25.23;20.65;;;;;;;20.78;97.52;99495.31;8410684;28;20490;-78
2022/08/13 09:25:48;;;;;;;25.80;20.38;;;;;;;20.86;97.20;99481.34;8418533;28;20059;-79
2022/08/13 09:29:50;;;;;;;28.83;21.67;;;;;;;20.89;96.90;99479.78;8422755;28;20552;-78
2022/08/13 09:33:53;;;;;;;29.40;21.08;;;;;;;20.89;96.92;99490.78;8402589;28;20070;-78
2022/08/13 09:37:58;;;;;;;28.55;21.95;;;;;;;20.87;97.01;99487.63;8398364;28;20095;-79
2022/08/13 09:42:00;;;;;;;30.92;22.65;;;;;;;20.87;97.13;99482.13;8382063;28;20067;-79
2022/08/13 09:46:01;;;;;;;25.38;19.85;;;;;;;20.83;97.35;99481.28;8378209;28;20056;-79
2022/08/13 09:50:03;;;;;;;28.73;20.67;;;;;;;20.70;97.64;99488.13;8387361;28;20052;-79
2022/08/13 09:54:07;;;;;;;25.98;20.88;;;;;;;20.67;97.91;99484.94;8394751;28;20136;-78
2022/08/13 09:58:10;;;;;;;27.67;21.42;;;;;;;20.82;97.55;99479.69;8406096;28;20097;-78
2022/08/13 10:02:12;;;;;;;28.13;20.63;;;;;;;20.89;96.64;99474.28;8394822;28;20126;-79
2022/08/13 10:06:13;;;;;;;26.40;20.23;;;;;;;20.95;96.62;99483.81;8378632;28;20461;-78
2022/08/13 10:10:14;;;;;;;26.05;21.15;;;;;;;20.96;96.49;99479.91;8399266;28;20040;-78
2022/08/13 10:14:16;;;;;;;24.65;18.88;;;;;;;20.86;96.52;99491.53;8391751;28;20048;-77
2022/08/13 10:18:18;;;;;;;25.98;20.05;;;;;;;20.78;96.53;99489.81;8391466;28;20059;-76
2022/08/13 10:22:19;;;;;;;28.88;19.80;;;;;;;20.67;96.91;99488.84;8397580;28;20475;-79
2022/08/13 10:26:20;;;;;;;24.27;19.42;;;;;;;20.64;97.05;99480.19;8394219;28;20131;-78
2022/08/13 10:30:25;;;;;;;26.98;19.75;;;;;;;20.75;97.02;99479.56;8409176;28;20392;-76
2022/08/13 10:34:27;;;;;;;28.15;19.65;;;;;;;20.90;96.37;99475.88;8393838;28;20415;-77
2022/08/13 10:38:29;;;;;;;29.13;19.52;;;;;;;21.11;95.67;99481.72;8393366;28;20039;-76
2022/08/13 10:42:31;;;;;;;23.77;18.45;;;;;;;21.30;94.94;99467.91;8376966;28;20053;-77
2022/08/13 10:46:33;;;;;;;23.50;16.90;;;;;;;21.49;94.05;99459.53;8373604;28;20407;-77
2022/08/13 10:50:34;;;;;;;23.40;17.88;;;;;;;21.69;93.31;99456.63;8399594;28;20045;-77
2022/08/13 10:54:37;;;;;;;21.48;15.82;;;;;;;21.86;92.89;99445.06;8394552;28;20044;-77
2022/08/13 10:58:42;;;;;;;20.48;15.85;;;;;;;22.00;92.49;99450.72;8391668;28;20048;-76
2022/08/13 11:02:48;;;;;;;19.65;16.35;;;;;;;22.03;91.99;99447.25;8396284;28;20055;-77
2022/08/13 11:06:49;;;;;;;24.85;17.60;;;;;;;22.18;91.72;99440.72;8377370;28;20450;-78
2022/08/13 11:10:50;;;;;;;23.45;17.30;;;;;;;22.33;90.68;99439.69;8396854;28;20071;-77
2022/08/13 11:14:52;;;;;;;23.42;18.15;;;;;;;22.36;90.16;99431.84;8390914;28;20076;-78
2022/08/13 11:18:54;;;;;;;27.42;19.88;;;;;;;22.41;90.17;99415.00;8403604;28;20045;-77
2022/08/13 11:22:56;;;;;;;26.33;19.50;;;;;;;22.49;89.85;99416.63;8383326;28;20041;-77
2022/08/13 11:26:57;;;;;;;26.73;20.77;;;;;;;22.54;88.91;99408.81;8371810;28;20049;-78
2022/08/13 11:30:58;;;;;;;25.80;20.17;;;;;;;22.65;88.50;99397.88;8368788;28;20056;-77
2022/08/13 11:34:59;;;;;;;23.63;20.30;;;;;;;22.64;88.26;99390.78;8366406;28;20049;-77
2022/08/13 11:39:00;;;;;;;26.25;20.05;;;;;;;22.77;87.44;99389.34;8383771;28;20101;-77
2022/08/13 11:43:01;;;;;;;23.58;20.23;;;;;;;22.93;87.10;99381.59;8395727;28;20415;-77
2022/08/13 11:47:02;;;;;;;25.63;19.55;;;;;;;22.90;86.20;99382.34;8332915;28;20499;-77
2022/08/13 11:51:03;;;;;;;27.45;20.35;;;;;;;22.94;86.47;99377.66;8395525;28;20059;-77
2022/08/13 11:55:05;;;;;;;23.50;18.08;;;;;;;22.95;85.38;99373.72;8394623;28;20049;-76
2022/08/13 11:59:06;;;;;;;23.40;18.55;;;;;;;22.91;85.67;99372.91;8376542;28;20073;-76
2022/08/13 12:03:07;;;;;;;25.65;18.15;;;;;;;23.00;85.56;99381.59;8376602;28;20387;-77
2022/08/13 12:07:08;;;;;;;22.65;17.65;;;;;;;23.04;85.53;99387.94;8393018;28;20052;-77
2022/08/13 12:11:09;;;;;;;25.70;16.75;;;;;;;23.05;85.16;99384.00;8395884;28;20101;-78
2022/08/13 12:15:11;;;;;;;21.83;16.63;;;;;;;23.16;84.96;99384.84;8378065;28;20036;-76
2022/08/13 12:19:12;;;;;;;20.83;16.30;;;;;;;23.44;84.35;99378.69;8395421;28;20094;-77
2022/08/13 12:23:13;;;;;;;19.33;15.77;;;;;;;23.83;83.11;99373.34;8395888;28;20048;-77
2022/08/13 12:27:14;;;;;;;18.85;15.45;;;;;;;24.20;81.14;99386.03;8386320;28;20056;-77
2022/08/13 12:31:17;;;;;;;20.45;15.18;;;;;;;24.28;80.92;99387.59;8410647;28;20380;-76
2022/08/13 12:35:18;;;;;;;17.75;14.27;;;;;;;24.20;80.32;99386.03;8376817;28;20052;-77
2022/08/13 12:39:19;;;;;;;19.45;12.80;;;;;;;24.41;79.37;99380.53;8383854;28;20056;-77
2022/08/13 12:43:20;;;;;;;20.63;13.90;;;;;;;24.44;78.43;99385.25;8383946;28;20047;-75
2022/08/13 12:47:22;;;;;;;21.50;13.93;;;;;;;24.28;78.72;99382.06;8359174;28;20059;-76
2022/08/13 12:51:22;;;;;;;17.95;13.85;;;;;;;24.23;78.64;99386.03;8392236;28;20045;-77
2022/08/13 12:55:23;;;;;;;21.70;13.60;;;;;;;24.22;78.42;99378.13;8368491;28;20483;-77
2022/08/13 12:59:24;;;;;;;19.70;13.70;;;;;;;24.19;77.72;99367.88;8370038;28;20072;-76
2022/08/13 13:03:26;;;;;;;20.50;15.07;;;;;;;24.18;78.05;99360.78;8350261;28;20037;-76
2022/08/13 13:07:27;;;;;;;18.38;14.75;;;;;;;24.12;77.75;99356.81;8380373;28;20044;-76
2022/08/13 13:11:28;;;;;;;21.70;15.60;;;;;;;24.08;78.33;99356.03;8356218;28;20078;-76
2022/08/13 13:15:29;;;;;;;24.63;15.20;;;;;;;24.05;77.20;99349.34;8386406;28;20109;-77
2022/08/13 13:19:30;;;;;;;22.50;15.45;;;;;;;24.06;77.16;99341.84;8373391;28;20072;-77
2022/08/13 13:23:31;;;;;;;21.75;15.93;;;;;;;24.11;76.68;99341.47;8373122;28;20098;-76
2022/08/13 13:27:35;;;;;;;25.08;15.52;;;;;;;24.24;76.94;99353.69;8354281;28;20059;-76
2022/08/13 13:31:37;;;;;;;23.52;15.02;;;;;;;24.45;76.04;99359.22;8325444;28;20049;-76
2022/08/13 13:35:40;;;;;;;21.67;15.52;;;;;;;24.69;75.57;99358.38;8313452;28;20050;-77
2022/08/13 13:39:42;;;;;;;21.50;15.73;;;;;;;24.66;75.36;99361.97;8308122;28;20046;-76
2022/08/13 13:43:43;;;;;;;27.25;15.88;;;;;;;24.41;76.00;99369.47;8333950;28;20041;-76
2022/08/13 13:47:44;;;;;;;21.02;15.20;;;;;;;24.29;76.57;99367.09;8332942;28;20041;-77
2022/08/13 13:51:45;;;;;;;23.50;16.20;;;;;;;24.28;77.01;99376.56;8332781;28;20058;-77
2022/08/13 13:55:46;;;;;;;20.00;15.48;;;;;;;24.26;76.69;99356.88;8315340;28;20437;-77
2022/08/13 13:59:47;;;;;;;24.05;15.85;;;;;;;24.18;77.30;99375.38;8332524;28;20048;-77
2022/08/13 14:03:48;;;;;;;23.05;15.85;;;;;;;24.12;77.12;99368.63;8333217;28;20096;-77
2022/08/13 14:07:50;;;;;;;19.38;14.85;;;;;;;23.96;77.22;99360.72;8329721;28;20443;-78
2022/08/13 14:11:51;;;;;;;19.92;13.95;;;;;;;23.71;77.81;99354.38;8321629;28;20100;-77
2022/08/13 14:15:53;;;;;;;16.70;13.63;;;;;;;23.66;77.58;99346.50;8286003;28;20042;-76
2022/08/13 14:19:54;;;;;;;20.83;12.75;;;;;;;23.64;77.54;99343.34;8332907;28;20657;-77
2022/08/13 14:23:55;;;;;;;15.80;12.05;;;;;;;23.63;76.90;99341.78;8318971;28;20187;-76
2022/08/13 14:27:57;;;;;;;16.25;11.85;;;;;;;23.53;77.12;99342.50;8319846;28;20532;-75
2022/08/13 14:31:58;;;;;;;21.05;11.68;;;;;;;23.36;77.49;99343.22;8368593;28;20057;-76
2022/08/13 14:35:59;;;;;;;14.70;11.30;;;;;;;23.25;78.30;99331.38;8389758;28;20490;-76
2022/08/13 14:40:01;;;;;;;16.42;10.77;;;;;;;23.39;78.22;99325.91;8365232;28;20496;-76
2022/08/13 14:44:05;;;;;;;16.23;11.50;;;;;;;23.63;77.23;99319.72;8387949;28;20047;-77
2022/08/13 14:48:14;;;;;;;11.50;10.30;;;;;;;24.55;75.19;99330.03;8396801;28;20052;-76
2022/08/13 14:52:15;;;;;;;12.23;10.10;;;;;;;26.31;70.80;99320.13;8397828;28;20048;-77
2022/08/13 14:56:18;;;;;;;12.70;9.55;;;;;;;28.12;65.20;99321.53;8397122;28;20106;-77
2022/08/13 15:00:19;;;;;;;14.75;9.48;;;;;;;28.90;62.26;99331.28;8373205;28;20041;-76
2022/08/13 15:04:22;;;;;;;11.85;8.48;;;;;;;29.11;61.43;99318.16;8396936;28;20056;-77
2022/08/13 15:08:25;;;;;;;11.63;8.95;;;;;;;28.68;60.70;99318.97;8383442;28;20050;-77
2022/08/13 15:12:27;;;;;;;12.38;8.52;;;;;;;27.15;64.07;99314.94;8397143;28;20053;-76
2022/08/13 15:16:28;;;;;;;17.25;10.40;;;;;;;26.15;66.89;99308.78;8396853;28;20044;-76
2022/08/13 15:20:32;;;;;;;11.77;9.20;;;;;;;25.75;68.06;99301.19;8383548;28;20045;-76
2022/08/13 15:24:37;;;;;;;13.15;9.25;;;;;;;25.27;69.11;99304.59;8396710;28;20102;-76
2022/08/13 15:28:41;;;;;;;10.57;8.82;;;;;;;25.03;70.38;99295.19;8379067;28;20064;-77
2022/08/13 15:32:44;;;;;;;13.20;8.77;;;;;;;24.87;70.43;99296.81;8394840;28;20061;-76
2022/08/13 15:36:45;;;;;;;17.27;10.40;;;;;;;24.81;70.59;99288.94;8384135;28;20037;-77
2022/08/13 15:40:48;;;;;;;21.02;11.05;;;;;;;24.80;70.46;99297.59;8372872;28;20559;-77
2022/08/13 15:44:50;;;;;;;15.93;9.60;;;;;;;24.81;70.55;99294.47;8400928;28;20090;-76
2022/08/13 15:48:56;;;;;;;16.27;9.20;;;;;;;24.88;70.21;99292.88;8390654;28;20407;-77
2022/08/13 15:52:58;;;;;;;19.83;10.73;;;;;;;24.89;70.43;99292.50;8387421;28;20045;-77
2022/08/13 15:57:06;;;;;;;21.20;11.07;;;;;;;24.97;70.38;99301.53;8396098;28;20052;-76
2022/08/13 16:01:08;;;;;;;14.20;9.70;;;;;;;24.97;70.09;99296.00;8396342;28;20491;-76
2022/08/13 16:05:09;;;;;;;18.27;11.07;;;;;;;24.90;70.28;99285.00;8389406;28;20044;-75
2022/08/13 16:09:10;;;;;;;13.40;9.20;;;;;;;24.79;70.57;99290.53;8386127;28;20045;-77
2022/08/13 16:13:13;;;;;;;13.05;8.77;;;;;;;24.63;70.86;99282.69;8392880;28;20052;-75
2022/08/13 16:17:18;;;;;;;12.98;8.77;;;;;;;24.48;71.13;99280.34;8360537;28;20415;-76
2022/08/13 16:21:19;;;;;;;13.80;9.20;;;;;;;24.33;71.75;99280.34;8332205;28;20169;-77
2022/08/13 16:25:26;;;;;;;13.75;9.07;;;;;;;24.29;71.57;99278.78;8402754;28;20052;-77
2022/08/13 16:29:33;;;;;;;14.25;9.38;;;;;;;24.22;72.01;99278.78;8378383;28;20052;-77
2022/08/13 16:33:36;;;;;;;12.60;8.95;;;;;;;24.18;72.62;99284.31;8379912;28;20403;-77
2022/08/13 16:37:38;;;;;;;12.63;8.75;;;;;;;24.16;73.19;99280.34;8378510;28;20048;-78
2022/08/13 16:41:43;;;;;;;13.48;9.70;;;;;;;24.12;73.20;99274.81;8393260;28;20053;-76
2022/08/13 16:45:46;;;;;;;18.02;9.65;;;;;;;24.09;73.41;99285.88;8401336;28;20059;-75
2022/08/13 16:49:48;;;;;;;21.33;9.73;;;;;;;23.99;73.75;99277.22;8402265;28;20048;-76
2022/08/13 16:53:50;;;;;;;16.65;9.52;;;;;;;23.85;73.98;99277.19;8401543;28;20068;-76
2022/08/13 16:57:51;;;;;;;13.20;8.93;;;;;;;23.74;74.38;99265.34;8401313;28;20048;-76
2022/08/13 17:01:54;;;;;;;18.88;9.68;;;;;;;23.69;74.52;99268.50;8366027;28;20095;-77
2022/08/13 17:10:14;;;;;;;18.80;9.30;;;;;;;23.57;75.29;99255.13;8397441;28;20174;-77
2022/08/13 17:14:18;;;;;;;16.30;10.43;;;;;;;23.52;76.21;99252.75;8344408;28;20049;-76
2022/08/13 17:18:19;;;;;;;12.68;10.02;;;;;;;23.43;76.66;99249.53;8361317;28;20044;-78
2022/08/13 17:22:21;;;;;;;16.13;10.85;;;;;;;23.34;77.45;99246.38;8392566;28;20048;-77
2022/08/13 17:26:22;;;;;;;17.13;11.10;;;;;;;23.23;78.28;99251.06;8400426;28;20052;-76
2022/08/13 17:30:27;;;;;;;17.80;11.55;;;;;;;23.09;79.23;99241.59;8392958;28;20109;-77
2022/08/13 17:34:31;;;;;;;18.20;11.52;;;;;;;22.97;80.14;99244.69;8366040;28;20045;-77
2022/08/13 17:38:33;;;;;;;15.02;10.32;;;;;;;22.86;80.87;99238.34;8399997;28;20418;-75
2022/08/13 17:42:34;;;;;;;19.35;10.75;;;;;;;22.74;81.31;99246.94;8387665;28;20491;-75
2022/08/13 17:46:36;;;;;;;16.55;10.88;;;;;;;22.64;82.27;99247.66;8335832;28;20037;-76
2022/08/13 17:50:42;;;;;;;13.35;10.70;;;;;;;22.57;82.82;99253.13;8396752;28;20044;-76
2022/08/13 17:54:44;;;;;;;17.02;10.82;;;;;;;22.47;83.59;99242.84;8348845;28;20048;-76
2022/08/13 17:58:45;;;;;;;12.25;10.02;;;;;;;22.36;84.46;99251.03;8380800;28;20718;-75
2022/08/13 18:02:46;;;;;;;14.65;10.20;;;;;;;22.23;85.03;99253.31;8391547;28;20073;-76
2022/08/13 18:06:47;;;;;;;16.20;11.13;;;;;;;22.10;85.94;99263.03;8394020;28;20060;-75
2022/08/13 18:10:48;;;;;;;15.30;10.95;;;;;;;22.00;86.50;99263.72;8399326;28;20052;-76
2022/08/13 18:14:49;;;;;;;17.20;10.48;;;;;;;21.95;87.14;99272.34;8399211;28;20056;-76
2022/08/13 18:18:51;;;;;;;17.02;10.95;;;;;;;21.90;87.23;99280.91;8363619;28;20044;-76
2022/08/13 18:22:55;;;;;;;14.50;11.38;;;;;;;21.84;87.46;99282.41;8328902;28;20425;-75
2022/08/13 18:26:57;;;;;;;18.35;13.05;;;;;;;21.79;87.70;99280.03;8328150;28;20076;-76
2022/08/13 18:30:58;;;;;;;17.88;11.98;;;;;;;21.74;88.30;99289.41;8322528;28;20536;-75
2022/08/13 18:34:59;;;;;;;16.50;11.70;;;;;;;21.71;88.50;99290.19;8328074;28;20168;-76
2022/08/13 18:39:02;;;;;;;18.33;12.70;;;;;;;21.68;88.50;99295.66;8283932;28;20133;-76
2022/08/13 18:43:03;;;;;;;18.80;13.02;;;;;;;21.62;89.05;99291.66;8292336;28;20056;-76
2022/08/13 18:47:04;;;;;;;24.92;14.73;;;;;;;21.57;89.45;99294.75;8295234;28;20050;-76
2022/08/13 18:51:08;;;;;;;19.40;13.75;;;;;;;21.53;89.79;99299.41;8273678;28;20049;-76
2022/08/13 18:55:16;;;;;;;21.45;14.23;;;;;;;21.47;90.13;99296.97;8355703;28;20135;-75
2022/08/13 18:59:17;;;;;;;17.10;13.63;;;;;;;21.46;90.10;99306.41;8353858;28;20128;-76
2022/08/13 19:03:24;;;;;;;17.77;13.60;;;;;;;21.41;90.46;99320.47;8319121;28;20505;-75
2022/08/13 19:07:25;;;;;;;16.60;12.63;;;;;;;21.38;90.79;99321.22;8285426;28;20098;-76